Time;durP1;ratioP1;P1;durP2;ratioP2;P2;SDS_P1;SDS_P2;PMS_P1;PMS_P2;Temp;Humidity;BMP_temperature;BMP_pressure;BME280_temperature;BME280_humidity;BME280_pressure;Samples;Min_cycle;Max_cycle;Signal;HPM_P1;HPM_P2
2023/06/15 00:01:26;;;;;;;4.60;4.13;;;;;;;;;;5061676;28;20225;-62
2023/06/15 00:03:53;;;;;;;4.87;4.43;;;;;;;;;;5063554;28;20204;-62
2023/06/15 00:06:21;;;;;;;5.17;4.63;;;;;;;;;;5058019;28;20271;-62
2023/06/15 00:08:48;;;;;;;4.57;4.17;;;;;;;;;;5060321;28;20675;-62
2023/06/15 00:11:15;;;;;;;5.40;4.27;;;;;;;;;;5061117;28;20254;-62
2023/06/15 00:13:43;;;;;;;9.20;4.40;;;;;;;;;;5066414;28;21027;-62
2023/06/15 00:16:12;;;;;;;7.13;4.10;;;;;;;;;;5065106;28;20205;-63
2023/06/15 00:18:40;;;;;;;4.80;4.13;;;;;;;;;;5067754;28;20206;-63
2023/06/15 00:21:08;;;;;;;4.33;3.93;;;;;;;;;;5057420;28;20209;-63
2023/06/15 00:23:36;;;;;;;5.87;4.20;;;;;;;;;;5066893;28;20276;-63
2023/06/15 00:26:03;;;;;;;6.30;4.63;;;;;;;;;;5059493;28;21208;-62
2023/06/15 00:28:30;;;;;;;5.37;4.27;;;;;;;;;;5057183;28;20596;-63
2023/06/15 00:30:57;;;;;;;7.53;4.50;;;;;;;;;;5056461;28;20295;-62
2023/06/15 00:33:25;;;;;;;6.73;5.00;;;;;;;;;;5060268;28;20233;-62
2023/06/15 00:35:52;;;;;;;13.40;8.47;;;;;;;;;;5058955;28;20193;-63
2023/06/15 00:38:19;;;;;;;8.70;6.63;;;;;;;;;;5060591;28;20678;-63
2023/06/15 00:40:48;;;;;;;8.23;5.40;;;;;;;;;;5052448;28;20201;-63
2023/06/15 00:43:16;;;;;;;5.07;4.57;;;;;;;;;;5056497;28;20225;-63
2023/06/15 00:45:43;;;;;;;5.13;4.67;;;;;;;;;;5058628;28;20342;-62
2023/06/15 00:48:11;;;;;;;7.30;4.40;;;;;;;;;;5057825;28;20210;-62
2023/06/15 00:50:39;;;;;;;5.33;4.60;;;;;;;;;;5065063;28;20562;-63
2023/06/15 00:53:06;;;;;;;9.47;5.30;;;;;;;;;;5062833;28;20233;-62
2023/06/15 00:55:34;;;;;;;8.23;5.67;;;;;;;;;;5054657;28;20234;-62
2023/06/15 00:58:02;;;;;;;6.63;5.40;;;;;;;;;;5059509;28;20197;-63
2023/06/15 01:00:35;;;;;;;4.90;4.40;;;;;;;;;;5058998;28;20214;-62
2023/06/15 01:03:04;;;;;;;5.00;4.60;;;;;;;;;;5055220;28;20218;-62
2023/06/15 01:05:34;;;;;;;6.10;4.30;;;;;;;;;;5060179;28;20206;-64
2023/06/15 01:08:04;;;;;;;5.10;4.60;;;;;;;;;;5065582;28;20715;-62
2023/06/15 01:10:32;;;;;;;5.03;3.93;;;;;;;;;;5058830;28;20214;-63
2023/06/15 01:13:01;;;;;;;5.70;4.90;;;;;;;;;;5061995;28;20717;-62
2023/06/15 01:15:28;;;;;;;4.80;4.30;;;;;;;;;;5066292;28;20202;-62
2023/06/15 01:17:59;;;;;;;4.77;4.37;;;;;;;;;;5063586;28;20278;-62
2023/06/15 01:20:27;;;;;;;6.13;4.50;;;;;;;;;;5064792;28;20209;-62
2023/06/15 01:22:55;;;;;;;11.93;4.33;;;;;;;;;;5063779;28;20703;-63
2023/06/15 01:25:33;;;;;;;7.30;4.27;;;;;;;;;;5058656;28;20262;-62
2023/06/15 01:28:02;;;;;;;5.80;4.60;;;;;;;;;;5070034;28;20204;-62
2023/06/15 01:30:32;;;;;;;7.03;4.17;;;;;;;;;;5055276;28;20202;-63
2023/06/15 01:33:00;;;;;;;5.37;4.87;;;;;;;;;;5058821;28;20225;-63
2023/06/15 01:35:27;;;;;;;5.17;4.53;;;;;;;;;;5068486;28;20686;-63
2023/06/15 01:37:55;;;;;;;5.43;4.07;;;;;;;;;;5066510;28;20197;-61
2023/06/15 01:40:22;;;;;;;4.90;4.37;;;;;;;;;;5063381;28;20660;-62
2023/06/15 01:42:51;;;;;;;8.03;4.53;;;;;;;;;;5064575;28;20226;-61
2023/06/15 01:45:19;;;;;;;4.90;4.40;;;;;;;;;;5062713;28;20213;-62
2023/06/15 01:47:47;;;;;;;4.83;4.30;;;;;;;;;;5063990;28;20205;-63
2023/06/15 01:50:15;;;;;;;5.23;4.73;;;;;;;;;;5056192;28;20229;-63
2023/06/15 01:52:42;;;;;;;6.10;4.43;;;;;;;;;;5043343;28;20263;-63
2023/06/15 01:55:10;;;;;;;4.80;4.37;;;;;;;;;;5039431;28;20615;-62
2023/06/15 01:57:40;;;;;;;4.90;4.50;;;;;;;;;;5070713;28;20219;-62
2023/06/15 02:00:11;;;;;;;6.07;4.73;;;;;;;;;;5071204;28;20202;-62
2023/06/15 02:02:39;;;;;;;5.07;4.50;;;;;;;;;;5068177;28;20222;-62
2023/06/15 02:05:07;;;;;;;4.67;4.27;;;;;;;;;;5064265;28;20216;-62
2023/06/15 02:07:34;;;;;;;5.33;4.83;;;;;;;;;;5070249;28;20213;-62
2023/06/15 02:10:02;;;;;;;5.33;4.87;;;;;;;;;;5068813;28;20663;-62
2023/06/15 02:12:30;;;;;;;7.13;4.90;;;;;;;;;;5069254;28;20248;-62
2023/06/15 02:14:57;;;;;;;7.17;5.40;;;;;;;;;;5069044;28;20250;-63
2023/06/15 02:17:25;;;;;;;7.50;5.47;;;;;;;;;;5070843;28;20212;-62
2023/06/15 02:19:52;;;;;;;7.93;5.03;;;;;;;;;;5050356;28;20569;-63
2023/06/15 02:22:20;;;;;;;6.23;5.20;;;;;;;;;;5057897;28;20218;-62
2023/06/15 02:24:47;;;;;;;5.47;4.33;;;;;;;;;;5073186;28;20209;-62
2023/06/15 02:27:15;;;;;;;5.90;4.67;;;;;;;;;;5076018;28;20263;-63
2023/06/15 02:29:42;;;;;;;6.10;5.27;;;;;;;;;;5067974;28;20293;-62
2023/06/15 02:32:10;;;;;;;5.20;4.77;;;;;;;;;;5053366;28;20229;-63
2023/06/15 02:34:37;;;;;;;5.83;4.90;;;;;;;;;;5056542;28;20209;-63
2023/06/15 02:37:04;;;;;;;5.67;5.07;;;;;;;;;;5054945;28;20723;-62
2023/06/15 02:39:32;;;;;;;6.43;5.23;;;;;;;;;;5053939;28;20208;-63
2023/06/15 02:41:59;;;;;;;5.40;4.90;;;;;;;;;;5065412;28;20225;-62
2023/06/15 02:44:26;;;;;;;9.70;5.73;;;;;;;;;;5057791;28;20335;-62
2023/06/15 02:46:54;;;;;;;5.43;4.93;;;;;;;;;;5062973;28;20216;-62
2023/06/15 02:49:23;;;;;;;5.17;4.77;;;;;;;;;;5066565;28;20201;-63
2023/06/15 02:51:50;;;;;;;7.27;5.20;;;;;;;;;;5077216;28;20225;-63
2023/06/15 02:54:17;;;;;;;6.70;5.40;;;;;;;;;;5070921;28;20232;-63
2023/06/15 02:56:45;;;;;;;5.67;5.00;;;;;;;;;;5068169;28;20579;-62
2023/06/15 02:59:13;;;;;;;5.80;4.80;;;;;;;;;;5072141;28;20197;-62
2023/06/15 03:01:41;;;;;;;6.37;5.10;;;;;;;;;;5066790;28;20225;-62
2023/06/15 03:04:09;;;;;;;8.23;5.07;;;;;;;;;;5073857;28;20274;-62
2023/06/15 03:06:38;;;;;;;5.30;4.73;;;;;;;;;;5071336;28;20216;-62
2023/06/15 03:09:07;;;;;;;5.37;4.87;;;;;;;;;;5072835;28;20244;-62
2023/06/15 03:11:34;;;;;;;5.40;4.90;;;;;;;;;;5067587;28;20217;-62
2023/06/15 03:14:10;;;;;;;5.63;5.03;;;;;;;;;;5062008;28;20233;-62
2023/06/15 03:16:46;;;;;;;4.87;4.47;;;;;;;;;;5065889;28;20198;-62
2023/06/15 03:19:17;;;;;;;5.77;5.00;;;;;;;;;;5068998;28;20205;-62
2023/06/15 03:21:47;;;;;;;5.80;4.97;;;;;;;;;;5064026;28;20217;-62
2023/06/15 03:24:16;;;;;;;5.83;4.57;;;;;;;;;;5061042;28;20213;-62
2023/06/15 03:26:43;;;;;;;6.27;5.43;;;;;;;;;;5060326;28;20198;-63
2023/06/15 03:29:13;;;;;;;5.93;5.30;;;;;;;;;;5058361;28;20207;-63
2023/06/15 03:31:44;;;;;;;8.80;5.40;;;;;;;;;;5063268;28;20230;-62
2023/06/15 03:34:11;;;;;;;6.40;5.17;;;;;;;;;;5059771;28;20251;-63
2023/06/15 03:36:39;;;;;;;5.30;4.83;;;;;;;;;;5057460;28;20213;-63
2023/06/15 03:39:06;;;;;;;6.23;4.90;;;;;;;;;;5056208;28;20606;-62
2023/06/15 03:41:37;;;;;;;6.40;4.67;;;;;;;;;;5061548;28;20415;-63
2023/06/15 03:44:04;;;;;;;7.17;5.30;;;;;;;;;;5057217;28;20201;-62
2023/06/15 03:46:31;;;;;;;5.50;4.90;;;;;;;;;;5063607;28;20206;-63
2023/06/15 03:48:59;;;;;;;18.63;9.17;;;;;;;;;;5061635;28;20210;-63
2023/06/15 03:51:27;;;;;;;17.50;9.60;;;;;;;;;;5065221;28;20229;-62
2023/06/15 03:53:54;;;;;;;10.70;7.70;;;;;;;;;;5060053;28;20407;-62
2023/06/15 03:56:22;;;;;;;11.77;8.37;;;;;;;;;;5059244;28;20221;-61
2023/06/15 03:58:49;;;;;;;13.20;7.53;;;;;;;;;;5065505;28;20247;-62
2023/06/15 04:01:19;;;;;;;8.40;5.30;;;;;;;;;;5051977;28;20208;-61
2023/06/15 04:03:46;;;;;;;6.50;5.53;;;;;;;;;;5043462;28;20690;-63
2023/06/15 04:06:15;;;;;;;6.37;5.43;;;;;;;;;;5064619;28;20201;-61
2023/06/15 04:08:43;;;;;;;8.77;6.10;;;;;;;;;;5061666;28;20202;-62
2023/06/15 04:11:10;;;;;;;6.03;5.50;;;;;;;;;;5064259;28;20735;-61
2023/06/15 04:13:38;;;;;;;6.50;5.80;;;;;;;;;;5068233;28;20223;-61
2023/06/15 04:16:05;;;;;;;6.83;5.37;;;;;;;;;;5062872;28;20210;-62
2023/06/15 04:18:32;;;;;;;8.47;5.83;;;;;;;;;;5056463;28;20209;-62
2023/06/15 04:20:59;;;;;;;6.63;5.97;;;;;;;;;;5065664;28;20657;-62
2023/06/15 04:23:27;;;;;;;8.73;6.67;;;;;;;;;;5068423;28;20217;-62
2023/06/15 04:25:58;;;;;;;7.83;7.10;;;;;;;;;;5062123;28;20380;-62
2023/06/15 04:28:25;;;;;;;7.37;6.60;;;;;;;;;;5054654;28;20849;-62
2023/06/15 04:30:54;;;;;;;8.43;6.73;;;;;;;;;;5056243;28;20286;-65
2023/06/15 04:33:23;;;;;;;7.70;7.00;;;;;;;;;;5057642;28;20750;-62
2023/06/15 04:35:51;;;;;;;8.77;7.27;;;;;;;;;;5039718;28;20554;-62
2023/06/15 04:38:20;;;;;;;9.60;7.50;;;;;;;;;;5050276;28;20219;-64
2023/06/15 04:40:48;;;;;;;8.13;7.30;;;;;;;;;;5060239;28;20202;-61
2023/06/15 04:43:15;;;;;;;7.93;6.90;;;;;;;;;;5055336;28;20789;-62
2023/06/15 04:45:42;;;;;;;7.70;6.90;;;;;;;;;;5053238;28;20264;-63
2023/06/15 04:48:11;;;;;;;6.63;5.80;;;;;;;;;;5062134;28;23277;-66
2023/06/15 04:50:38;;;;;;;6.27;5.67;;;;;;;;;;5045005;28;20314;-63
2023/06/15 04:53:05;;;;;;;6.40;5.80;;;;;;;;;;5041378;28;20251;-61
2023/06/15 04:55:34;;;;;;;8.87;6.20;;;;;;;;;;5051638;28;20197;-60
2023/06/15 04:58:04;;;;;;;7.37;6.20;;;;;;;;;;5050421;28;20272;-63
2023/06/15 05:00:32;;;;;;;7.50;6.60;;;;;;;;;;5055599;28;20216;-62
2023/06/15 05:03:00;;;;;;;7.97;6.07;;;;;;;;;;5061956;28;20697;-64
2023/06/15 05:05:27;;;;;;;6.93;5.77;;;;;;;;;;5061887;28;20280;-62
2023/06/15 05:07:55;;;;;;;8.70;6.40;;;;;;;;;;5061200;28;20804;-62
2023/06/15 05:10:22;;;;;;;6.90;6.20;;;;;;;;;;5060015;28;20198;-63
2023/06/15 05:13:09;;;;;;;6.53;5.93;;;;;;;;;;5041300;28;20611;-62
2023/06/15 05:15:37;;;;;;;5.77;5.27;;;;;;;;;;5064967;28;20213;-61
2023/06/15 05:18:04;;;;;;;6.33;5.60;;;;;;;;;;5060728;28;20292;-63
2023/06/15 05:20:32;;;;;;;7.10;6.23;;;;;;;;;;5061697;28;20691;-62
2023/06/15 05:22:59;;;;;;;6.30;5.57;;;;;;;;;;5048758;28;20263;-61
2023/06/15 05:25:26;;;;;;;8.27;5.27;;;;;;;;;;5056361;28;20236;-64
2023/06/15 05:27:55;;;;;;;7.85;5.22;;;;;;;;;;5055485;28;20763;-64
2023/06/15 05:30:26;;;;;;;4.78;4.38;;;;;;;;;;5060024;28;20202;-63
2023/06/15 05:32:54;;;;;;;5.57;4.28;;;;;;;;;;5056418;28;20226;-63
2023/06/15 05:35:21;;;;;;;5.18;4.70;;;;;;;;;;5058178;28;20210;-62
2023/06/15 05:37:48;;;;;;;5.60;4.45;;;;;;;;;;5058680;28;20201;-63
2023/06/15 05:40:16;;;;;;;5.00;4.50;;;;;;;;;;5057296;28;20198;-63
2023/06/15 05:42:43;;;;;;;5.40;4.50;;;;;;;;;;5055536;28;20596;-62
2023/06/15 05:45:10;;;;;;;5.40;4.60;;;;;;;;;;5053910;28;20209;-63
2023/06/15 05:47:40;;;;;;;5.22;4.60;;;;;;;;;;5058649;28;20214;-63
2023/06/15 05:50:08;;;;;;;5.55;4.40;;;;;;;;;;5060010;28;20211;-64
2023/06/15 05:52:36;;;;;;;5.22;4.00;;;;;;;;;;5042781;28;20279;-63
2023/06/15 05:55:03;;;;;;;4.30;3.97;;;;;;;;;;5056368;28;20218;-63
2023/06/15 05:57:30;;;;;;;4.97;4.32;;;;;;;;;;5058745;28;20198;-62
2023/06/15 05:59:58;;;;;;;6.05;4.20;;;;;;;;;;5057857;28;20266;-64
2023/06/15 06:02:26;;;;;;;4.50;4.10;;;;;;;;;;5059853;28;20225;-63
2023/06/15 06:04:54;;;;;;;4.00;3.70;;;;;;;;;;5060338;28;20215;-63
2023/06/15 06:07:21;;;;;;;4.40;4.00;;;;;;;;;;5048323;28;20244;-63
2023/06/15 06:09:49;;;;;;;6.50;4.55;;;;;;;;;;5066282;28;20213;-62
2023/06/15 06:12:16;;;;;;;4.63;4.22;;;;;;;;;;5064481;28;20460;-63
2023/06/15 06:14:44;;;;;;;4.93;4.40;;;;;;;;;;5069464;28;20300;-63
2023/06/15 06:17:11;;;;;;;4.25;3.95;;;;;;;;;;5057985;28;20212;-63
2023/06/15 06:19:57;;;;;;;5.53;4.63;;;;;;;;;;5063169;28;20193;-61
2023/06/15 06:22:25;;;;;;;6.85;5.03;;;;;;;;;;5061065;28;20222;-62
2023/06/15 06:24:52;;;;;;;5.38;4.88;;;;;;;;;;5047491;28;20209;-62
2023/06/15 06:27:20;;;;;;;5.68;4.60;;;;;;;;;;5059656;28;20202;-62
2023/06/15 06:29:48;;;;;;;5.60;5.07;;;;;;;;;;5056084;28;20248;-62
2023/06/15 06:32:15;;;;;;;4.75;4.30;;;;;;;;;;5067035;28;20240;-61
2023/06/15 06:34:42;;;;;;;5.57;4.45;;;;;;;;;;5059792;28;20360;-62
2023/06/15 06:37:09;;;;;;;5.55;5.05;;;;;;;;;;5066732;28;20205;-62
2023/06/15 06:39:38;;;;;;;5.18;4.70;;;;;;;;;;5061315;28;20690;-64
2023/06/15 06:42:09;;;;;;;7.03;4.55;;;;;;;;;;5070531;28;20780;-65
2023/06/15 06:44:36;;;;;;;4.95;4.45;;;;;;;;;;5055679;28;20213;-63
2023/06/15 06:47:04;;;;;;;4.45;4.07;;;;;;;;;;5046038;28;20645;-63
2023/06/15 06:49:31;;;;;;;4.90;4.03;;;;;;;;;;5062155;28;20213;-63
2023/06/15 06:51:58;;;;;;;4.28;3.88;;;;;;;;;;5052326;28;20226;-62
2023/06/15 06:54:26;;;;;;;5.78;4.03;;;;;;;;;;5044518;28;20711;-61
2023/06/15 06:56:54;;;;;;;4.95;4.35;;;;;;;;;;5054816;28;20197;-63
2023/06/15 06:59:22;;;;;;;4.20;3.90;;;;;;;;;;5056224;28;20673;-64
2023/06/15 07:02:09;;;;;;;5.22;4.05;;;;;;;;;;5045651;28;20217;-62
2023/06/15 07:04:36;;;;;;;6.63;4.00;;;;;;;;;;5061537;28;20266;-63
2023/06/15 07:07:04;;;;;;;6.32;4.43;;;;;;;;;;5041338;28;20221;-63
2023/06/15 07:09:31;;;;;;;4.30;4.00;;;;;;;;;;5058993;28;20209;-63
2023/06/15 07:12:01;;;;;;;4.45;4.00;;;;;;;;;;5061010;28;20586;-63
2023/06/15 07:14:30;;;;;;;4.43;4.03;;;;;;;;;;5067571;28;20221;-63
2023/06/15 07:16:58;;;;;;;4.47;4.10;;;;;;;;;;5047772;28;20545;-64
2023/06/15 07:19:25;;;;;;;5.57;3.75;;;;;;;;;;5045549;28;20721;-62
2023/06/15 07:21:53;;;;;;;4.05;3.65;;;;;;;;;;5064420;28;20225;-62
2023/06/15 07:24:20;;;;;;;4.43;3.70;;;;;;;;;;5057373;28;20222;-63
2023/06/15 07:26:47;;;;;;;6.57;4.00;;;;;;;;;;5060604;28;20597;-62
2023/06/15 07:29:15;;;;;;;6.32;3.80;;;;;;;;;;5056271;28;20216;-61
2023/06/15 07:31:42;;;;;;;6.10;4.20;;;;;;;;;;5060356;28;20229;-64
2023/06/15 07:34:09;;;;;;;4.75;3.90;;;;;;;;;;5064327;28;20476;-64
2023/06/15 07:36:37;;;;;;;5.22;3.88;;;;;;;;;;5050786;28;20206;-63
2023/06/15 07:39:05;;;;;;;4.30;4.00;;;;;;;;;;5042972;28;23106;-63
2023/06/15 07:41:32;;;;;;;5.50;3.83;;;;;;;;;;5044560;28;20229;-63
2023/06/15 07:44:00;;;;;;;6.20;4.00;;;;;;;;;;5053471;28;20208;-63
2023/06/15 07:46:27;;;;;;;4.57;4.18;;;;;;;;;;5052835;28;20209;-63
2023/06/15 07:48:55;;;;;;;4.30;3.92;;;;;;;;;;5052659;28;20632;-65
2023/06/15 07:51:22;;;;;;;5.32;3.90;;;;;;;;;;5061442;28;20225;-63
2023/06/15 07:54:05;;;;;;;4.00;3.70;;;;;;;;;;5061709;28;20510;-63
2023/06/15 07:56:33;;;;;;;4.00;3.40;;;;;;;;;;5059180;28;20198;-62
2023/06/15 07:59:00;;;;;;;5.07;3.42;;;;;;;;;;5058297;28;20619;-62
2023/06/15 08:01:27;;;;;;;4.95;3.60;;;;;;;;;;5055651;28;20226;-63
2023/06/15 08:03:55;;;;;;;4.38;3.90;;;;;;;;;;5056835;28;20296;-63
2023/06/15 08:06:22;;;;;;;4.32;3.25;;;;;;;;;;5065185;28;20630;-62
2023/06/15 08:08:50;;;;;;;3.63;3.20;;;;;;;;;;5065329;28;20209;-62
2023/06/15 08:11:17;;;;;;;3.38;3.05;;;;;;;;;;5056783;28;20202;-62
2023/06/15 08:13:44;;;;;;;4.28;3.22;;;;;;;;;;5061022;28;20296;-64
2023/06/15 08:16:12;;;;;;;4.82;3.47;;;;;;;;;;5054236;28;20194;-63
2023/06/15 08:18:39;;;;;;;4.32;3.53;;;;;;;;;;5060780;28;20590;-62
2023/06/15 08:21:06;;;;;;;4.22;3.40;;;;;;;;;;5064568;28;20198;-62
2023/06/15 08:23:34;;;;;;;5.97;3.92;;;;;;;;;;5067493;28;20205;-61
2023/06/15 08:26:02;;;;;;;4.72;3.63;;;;;;;;;;5066014;28;20224;-60
2023/06/15 08:28:29;;;;;;;5.47;3.47;;;;;;;;;;5062883;28;20205;-62
2023/06/15 08:31:14;;;;;;;3.83;3.33;;;;;;;;;;5060791;28;20266;-61
2023/06/15 08:33:41;;;;;;;6.97;3.35;;;;;;;;;;5068429;28;20639;-65
2023/06/15 08:36:08;;;;;;;3.92;3.53;;;;;;;;;;5072653;28;20669;-63
2023/06/15 08:38:36;;;;;;;4.97;3.60;;;;;;;;;;5067309;28;20201;-63
2023/06/15 08:41:04;;;;;;;10.18;3.97;;;;;;;;;;5084566;28;20225;-64
2023/06/15 08:43:33;;;;;;;11.30;3.60;;;;;;;;;;5076931;28;20202;-67
2023/06/15 08:46:01;;;;;;;3.75;3.35;;;;;;;;;;5076627;28;20202;-67
2023/06/15 08:48:31;;;;;;;4.10;3.63;;;;;;;;;;5087103;28;20450;-63
2023/06/15 08:50:59;;;;;;;6.00;3.17;;;;;;;;;;5091413;28;20252;-63
2023/06/15 08:53:28;;;;;;;7.88;3.42;;;;;;;;;;5086037;28;20557;-67
2023/06/15 08:55:56;;;;;;;3.95;3.65;;;;;;;;;;5083973;28;20232;-66
2023/06/15 08:58:23;;;;;;;4.88;3.50;;;;;;;;;;5085456;28;20220;-64
2023/06/15 09:00:51;;;;;;;4.13;3.72;;;;;;;;;;5090549;28;20202;-65
2023/06/15 09:03:18;;;;;;;6.03;3.33;;;;;;;;;;5066242;28;20226;-64
2023/06/15 09:05:47;;;;;;;3.47;3.17;;;;;;;;;;5089565;28;21241;-64
2023/06/15 09:08:14;;;;;;;4.88;3.50;;;;;;;;;;5064442;28;20228;-65
2023/06/15 09:10:41;;;;;;;6.97;3.80;;;;;;;;;;5084401;28;20233;-63
2023/06/15 09:13:16;;;;;;;5.15;3.53;;;;;;;;;;5083676;28;20222;-65
2023/06/15 09:15:50;;;;;;;4.10;3.60;;;;;;;;;;5080794;28;20205;-66
2023/06/15 09:18:17;;;;;;;6.50;3.72;;;;;;;;;;5074769;28;20222;-62
2023/06/15 09:20:45;;;;;;;3.92;3.63;;;;;;;;;;5064383;28;20197;-63
2023/06/15 09:23:13;;;;;;;4.95;3.40;;;;;;;;;;5050262;28;20218;-62
2023/06/15 09:25:47;;;;;;;4.45;3.53;;;;;;;;;;5069816;28;20209;-62
2023/06/15 09:28:15;;;;;;;3.67;3.38;;;;;;;;;;5061245;28;20208;-62
2023/06/15 09:30:42;;;;;;;3.63;3.30;;;;;;;;;;5066189;28;20206;-63
2023/06/15 09:33:13;;;;;;;5.35;3.40;;;;;;;;;;5057758;28;20316;-62
2023/06/15 09:36:00;;;;;;;4.70;3.55;;;;;;;;;;5056016;28;20226;-62
2023/06/15 09:38:28;;;;;;;5.85;3.47;;;;;;;;;;5058986;28;20199;-62
2023/06/15 09:40:56;;;;;;;4.50;3.83;;;;;;;;;;5071717;28;20779;-65
2023/06/15 09:43:23;;;;;;;4.20;3.80;;;;;;;;;;5064524;28;20220;-62
2023/06/15 09:45:54;;;;;;;6.57;3.97;;;;;;;;;;5066755;28;20212;-63
2023/06/15 09:48:21;;;;;;;3.92;3.60;;;;;;;;;;5062268;28;20233;-62
2023/06/15 09:50:50;;;;;;;4.47;4.07;;;;;;;;;;5054794;28;20221;-63
2023/06/15 09:53:18;;;;;;;4.35;4.05;;;;;;;;;;5058965;28;20248;-62
2023/06/15 09:55:46;;;;;;;4.30;3.90;;;;;;;;;;5070491;28;20299;-64
2023/06/15 09:58:13;;;;;;;4.20;3.90;;;;;;;;;;5056404;28;20208;-62
2023/06/15 10:00:42;;;;;;;5.32;4.03;;;;;;;;;;5065902;28;20197;-67
2023/06/15 10:03:11;;;;;;;7.65;3.70;;;;;;;;;;5063464;28;20230;-62
2023/06/15 10:05:45;;;;;;;4.60;3.90;;;;;;;;;;5055335;28;20213;-65
2023/06/15 10:08:13;;;;;;;6.25;3.60;;;;;;;;;;5054498;28;20208;-66
2023/06/15 10:10:43;;;;;;;5.72;3.90;;;;;;;;;;5061347;28;20281;-67
2023/06/15 10:13:14;;;;;;;4.28;3.88;;;;;;;;;;5053589;28;20240;-64
2023/06/15 10:15:45;;;;;;;4.95;4.10;;;;;;;;;;5054878;28;20226;-67
2023/06/15 10:18:12;;;;;;;5.88;3.42;;;;;;;;;;5056039;28;20292;-63
2023/06/15 10:20:41;;;;;;;6.90;3.72;;;;;;;;;;5054527;28;20651;-63
2023/06/15 10:23:10;;;;;;;4.82;3.75;;;;;;;;;;5059351;28;20285;-65
2023/06/15 10:25:38;;;;;;;5.75;3.85;;;;;;;;;;5070078;28;20201;-62
2023/06/15 10:28:13;;;;;;;4.70;3.78;;;;;;;;;;5067364;28;20625;-62
2023/06/15 10:30:59;;;;;;;4.85;3.75;;;;;;;;;;5061175;28;20595;-64
2023/06/15 10:33:32;;;;;;;4.00;3.60;;;;;;;;;;5063725;28;20214;-64
2023/06/15 10:36:03;;;;;;;4.15;3.80;;;;;;;;;;5069628;28;20265;-62
2023/06/15 10:38:36;;;;;;;4.10;3.70;;;;;;;;;;5079350;28;20241;-63
2023/06/15 10:41:05;;;;;;;5.90;3.80;;;;;;;;;;5068119;28;20209;-62
2023/06/15 10:43:33;;;;;;;4.03;3.42;;;;;;;;;;5064408;28;20242;-65
2023/06/15 10:46:03;;;;;;;4.00;3.70;;;;;;;;;;5064004;28;20551;-62
2023/06/15 10:48:31;;;;;;;4.00;3.60;;;;;;;;;;5062794;28;20215;-62
2023/06/15 10:51:08;;;;;;;3.95;3.65;;;;;;;;;;5058718;28;20201;-62
2023/06/15 10:53:36;;;;;;;4.85;3.30;;;;;;;;;;5063055;28;20198;-64
2023/06/15 10:56:08;;;;;;;3.70;3.38;;;;;;;;;;5061006;28;20340;-62
2023/06/15 10:58:51;;;;;;;3.58;3.30;;;;;;;;;;5066964;28;20662;-64
2023/06/15 11:01:24;;;;;;;3.47;3.17;;;;;;;;;;5071707;28;20301;-63
2023/06/15 11:03:54;;;;;;;4.63;3.40;;;;;;;;;;5056699;28;20272;-63
2023/06/15 11:06:23;;;;;;;3.75;3.25;;;;;;;;;;5061887;28;20687;-63
2023/06/15 11:08:51;;;;;;;3.88;3.40;;;;;;;;;;5052089;28;20682;-63
2023/06/15 11:11:27;;;;;;;3.78;3.42;;;;;;;;;;5074616;28;20288;-63
2023/06/15 11:13:55;;;;;;;4.82;3.70;;;;;;;;;;5075147;28;20365;-63
2023/06/15 11:16:26;;;;;;;3.97;3.53;;;;;;;;;;5064773;28;20248;-63
2023/06/15 11:19:20;;;;;;;5.10;3.70;;;;;;;;;;5068792;28;20204;-63
2023/06/15 11:22:01;;;;;;;4.90;3.55;;;;;;;;;;5080699;28;20216;-63
2023/06/15 11:24:39;;;;;;;3.80;3.45;;;;;;;;;;5068243;28;20214;-63
2023/06/15 11:27:10;;;;;;;3.88;3.58;;;;;;;;;;5070913;28;20217;-63
2023/06/15 11:29:40;;;;;;;3.90;3.45;;;;;;;;;;5042706;28;20667;-63
2023/06/15 11:32:09;;;;;;;4.03;3.05;;;;;;;;;;5066801;28;20248;-63
2023/06/15 11:34:37;;;;;;;3.72;3.42;;;;;;;;;;5067150;28;20202;-63
2023/06/15 11:37:06;;;;;;;3.33;3.13;;;;;;;;;;5063142;28;20267;-64
2023/06/15 11:39:34;;;;;;;4.47;3.30;;;;;;;;;;5068190;28;20200;-64
2023/06/15 11:42:02;;;;;;;6.35;3.50;;;;;;;;;;5072952;28;20267;-63
2023/06/15 11:44:30;;;;;;;3.65;3.35;;;;;;;;;;5070307;28;20205;-63
2023/06/15 11:47:01;;;;;;;4.43;3.40;;;;;;;;;;5060548;28;20260;-62
2023/06/15 11:49:33;;;;;;;5.60;3.35;;;;;;;;;;5076137;28;20230;-65
2023/06/15 11:52:00;;;;;;;3.35;2.83;;;;;;;;;;5081457;28;20216;-62
2023/06/15 11:54:28;;;;;;;3.50;3.20;;;;;;;;;;5062080;28;20247;-66
2023/06/15 11:57:16;;;;;;;5.20;3.45;;;;;;;;;;5047384;28;20201;-63
2023/06/15 11:59:43;;;;;;;3.75;3.33;;;;;;;;;;5045346;28;20284;-63
2023/06/15 12:02:15;;;;;;;3.20;3.00;;;;;;;;;;5070714;28;20232;-63
2023/06/15 12:04:43;;;;;;;3.42;3.22;;;;;;;;;;5066367;28;20261;-63
2023/06/15 12:07:10;;;;;;;3.53;3.13;;;;;;;;;;5059764;28;20233;-62
2023/06/15 12:09:58;;;;;;;3.95;3.40;;;;;;;;;;5046060;28;20223;-64
2023/06/15 12:12:32;;;;;;;3.83;3.50;;;;;;;;;;5049805;28;20226;-64
2023/06/15 12:15:03;;;;;;;4.93;3.20;;;;;;;;;;5058801;28;20301;-64
2023/06/15 12:17:31;;;;;;;4.07;3.35;;;;;;;;;;5058667;28;20298;-63
2023/06/15 12:20:14;;;;;;;3.50;3.20;;;;;;;;;;5063546;28;20209;-63
2023/06/15 12:22:43;;;;;;;3.80;3.50;;;;;;;;;;5068488;28;20259;-64
2023/06/15 12:25:11;;;;;;;4.63;3.38;;;;;;;;;;5062249;28;20217;-62
2023/06/15 12:27:45;;;;;;;5.22;3.65;;;;;;;;;;5058200;28;20658;-64
2023/06/15 12:30:14;;;;;;;4.30;3.45;;;;;;;;;;5062696;28;20273;-62
2023/06/15 12:32:43;;;;;;;4.72;3.38;;;;;;;;;;5054800;28;20234;-63
2023/06/15 12:35:31;;;;;;;3.45;3.25;;;;;;;;;;5063402;28;20236;-64
2023/06/15 12:37:58;;;;;;;3.60;3.30;;;;;;;;;;5058920;28;20232;-63
2023/06/15 12:40:26;;;;;;;3.58;3.28;;;;;;;;;;5057883;28;20596;-63
2023/06/15 12:42:57;;;;;;;4.03;3.10;;;;;;;;;;5065822;28;20771;-64
2023/06/15 12:45:25;;;;;;;4.63;3.10;;;;;;;;;;5069740;28;20671;-63
2023/06/15 12:47:53;;;;;;;3.50;3.20;;;;;;;;;;5073377;28;20738;-64
2023/06/15 12:50:21;;;;;;;3.55;2.90;;;;;;;;;;5056464;28;20285;-62
2023/06/15 12:52:48;;;;;;;3.55;3.25;;;;;;;;;;5069145;28;20698;-63
2023/06/15 12:55:16;;;;;;;3.63;3.33;;;;;;;;;;5077535;28;20865;-65
2023/06/15 12:57:43;;;;;;;3.80;2.90;;;;;;;;;;5060426;28;20194;-63
2023/06/15 13:00:11;;;;;;;3.75;3.38;;;;;;;;;;5057899;28;20197;-64
2023/06/15 13:02:39;;;;;;;3.45;3.15;;;;;;;;;;5045384;28;20252;-66
2023/06/15 13:05:07;;;;;;;3.40;2.95;;;;;;;;;;5062062;28;20572;-62
2023/06/15 13:07:34;;;;;;;3.40;3.10;;;;;;;;;;5064575;28;20650;-63
2023/06/15 13:10:02;;;;;;;4.03;2.97;;;;;;;;;;5071499;28;20206;-63
2023/06/15 13:12:35;;;;;;;3.65;3.22;;;;;;;;;;5070375;28;20225;-63
2023/06/15 13:15:03;;;;;;;3.40;3.10;;;;;;;;;;5075111;28;20254;-63
2023/06/15 13:17:32;;;;;;;3.67;3.38;;;;;;;;;;5073505;28;20217;-64
2023/06/15 13:19:59;;;;;;;3.30;3.00;;;;;;;;;;5076087;28;20197;-63
2023/06/15 13:22:27;;;;;;;3.88;3.35;;;;;;;;;;5067227;28;20240;-63
2023/06/15 13:24:54;;;;;;;3.03;2.83;;;;;;;;;;5046316;28;20532;-63
2023/06/15 13:27:22;;;;;;;4.57;3.22;;;;;;;;;;5053917;28;20201;-64
2023/06/15 13:29:49;;;;;;;3.17;2.97;;;;;;;;;;5069003;28;20229;-64
2023/06/15 13:32:17;;;;;;;5.05;3.42;;;;;;;;;;5067210;28;20549;-63
2023/06/15 13:34:46;;;;;;;3.42;3.15;;;;;;;;;;5071281;28;20281;-64
2023/06/15 13:37:16;;;;;;;3.40;3.10;;;;;;;;;;5079310;28;20282;-63
2023/06/15 13:39:43;;;;;;;3.75;3.40;;;;;;;;;;5064403;28;20639;-63
2023/06/15 13:42:12;;;;;;;4.60;2.92;;;;;;;;;;5060415;28;20229;-63
2023/06/15 13:44:39;;;;;;;3.63;3.33;;;;;;;;;;5048143;28;20271;-63
2023/06/15 13:47:06;;;;;;;3.78;3.33;;;;;;;;;;5062238;28;20213;-64
2023/06/15 13:49:35;;;;;;;2.97;2.78;;;;;;;;;;5047926;28;20240;-63
2023/06/15 13:52:05;;;;;;;3.80;3.28;;;;;;;;;;5060727;28;20225;-64
2023/06/15 13:54:36;;;;;;;5.72;3.13;;;;;;;;;;5065987;28;20522;-64
2023/06/15 13:57:04;;;;;;;3.40;3.10;;;;;;;;;;5064396;28;20214;-64
2023/06/15 13:59:31;;;;;;;3.40;3.10;;;;;;;;;;5062966;28;20201;-64
2023/06/15 14:02:01;;;;;;;3.00;2.80;;;;;;;;;;5063974;28;20573;-64
2023/06/15 14:04:30;;;;;;;5.65;3.58;;;;;;;;;;5052756;28;20218;-62
2023/06/15 14:06:58;;;;;;;4.15;3.40;;;;;;;;;;5060287;28;20221;-63
2023/06/15 14:09:26;;;;;;;4.03;3.05;;;;;;;;;;5055924;28;20592;-64
2023/06/15 14:11:58;;;;;;;3.60;3.25;;;;;;;;;;5064498;28;20225;-63
2023/06/15 14:14:26;;;;;;;4.57;3.47;;;;;;;;;;5056939;28;20206;-63
2023/06/15 14:16:54;;;;;;;3.97;3.47;;;;;;;;;;5067989;28;20260;-64
2023/06/15 14:19:22;;;;;;;4.10;3.05;;;;;;;;;;5070336;28;20206;-63
2023/06/15 14:21:50;;;;;;;4.38;3.58;;;;;;;;;;5071183;28;20229;-63
2023/06/15 14:24:18;;;;;;;5.10;3.50;;;;;;;;;;5069052;28;20239;-63
2023/06/15 14:26:46;;;;;;;3.67;3.00;;;;;;;;;;5048697;28;20205;-63
2023/06/15 14:29:15;;;;;;;3.13;2.83;;;;;;;;;;5064596;28;20201;-63
2023/06/15 14:31:46;;;;;;;3.67;3.38;;;;;;;;;;5069965;28;20249;-63
2023/06/15 14:34:14;;;;;;;7.68;3.25;;;;;;;;;;5058929;28;20220;-63
2023/06/15 14:36:42;;;;;;;4.20;3.33;;;;;;;;;;5051177;28;20225;-63
2023/06/15 14:39:10;;;;;;;3.65;3.00;;;;;;;;;;5062892;28;20287;-64
2023/06/15 14:41:38;;;;;;;3.40;3.20;;;;;;;;;;5056313;28;20683;-63
2023/06/15 14:44:06;;;;;;;3.45;3.22;;;;;;;;;;5044477;28;20364;-63
2023/06/15 14:46:35;;;;;;;4.70;3.20;;;;;;;;;;5064063;28;20570;-63
2023/06/15 14:49:05;;;;;;;3.17;2.88;;;;;;;;;;5063700;28;20660;-63
2023/06/15 14:51:36;;;;;;;3.25;2.80;;;;;;;;;;5044527;28;20309;-63
2023/06/15 14:54:05;;;;;;;3.25;2.88;;;;;;;;;;5057675;28;20201;-63